Terminal Aerodrome Forecast
Issued by NWS Charleston, WV

Current Version | Previous Version | Graphics & Text | Print | Product List | Glossary On
Versions: 1 2 3 4 5 6 7 8 9 10 11 12 13 14 15 16 17 18 19 20 21 22 23 24 25 26
000
FTUS41 KRLX 261134
TAFCRW
TAF
KCRW 261134Z 2612/2712 VRB03KT P6SM OVC050
     FM261300 VRB03KT 6SM SHRA BR OVC035
     FM261400 19004KT 5SM SHRA BR VCTS OVC025CB
     FM261500 20004KT P6SM OVC050
     FM261900 20007KT P6SM VCTS BKN050CB
     FM270300 VRB03KT P6SM SHRA VCTS BKN040CB
     FM270500 VRB03KT 6SM SHRA BR VCTS BKN035CB
     FM271000 VRB03KT 5SM SHRA BR VCTS OVC025CB=

USA.gov is the U.S. government's official web portal to all federal, state and local government web resources and services.